Time;durP1;ratioP1;P1;durP2;ratioP2;P2;SDS_P1;SDS_P2;PMS_P1;PMS_P2;Temp;Humidity;BMP_temperature;BMP_pressure;BME280_temperature;BME280_humidity;BME280_pressure;Samples;Min_cycle;Max_cycle;Signal;HPM_P1;HPM_P2
2022/07/27 00:00:23;;;;;;;4.17;2.60;;;20.50;90.60;;;;;;5005595;28;20221;-72
2022/07/27 00:02:50;;;;;;;;;;;20.40;90.90;;;;;;5004359;28;20068;-71
2022/07/27 00:05:16;;;;;;;3.97;2.33;;;20.40;91.00;;;;;;5003074;28;19937;-71
2022/07/27 00:07:41;;;;;;;5.00;2.27;;;20.40;91.10;;;;;;5002640;28;20018;-72
2022/07/27 00:10:07;;;;;;;2.90;2.30;;;20.30;91.40;;;;;;5005305;28;20085;-72
2022/07/27 00:12:33;;;;;;;3.65;2.55;;;20.20;92.00;;;;;;5005206;28;20026;-71
2022/07/27 00:14:59;;;;;;;4.07;2.30;;;20.20;92.10;;;;;;5005176;28;20038;-72
2022/07/27 00:17:25;;;;;;;5.70;2.20;;;20.10;92.50;;;;;;5005030;28;20029;-72
2022/07/27 00:19:51;;;;;;;7.35;2.30;;;20.10;92.80;;;;;;5003821;28;20065;-72
2022/07/27 00:22:17;;;;;;;3.60;2.67;;;20.10;93.20;;;;;;5005369;28;20026;-72
2022/07/27 00:24:43;;;;;;;7.23;3.27;;;20.00;92.90;;;;;;5004783;28;20035;-72
2022/07/27 00:27:08;;;;;;;6.45;2.35;;;20.00;93.00;;;;;;5005084;28;20030;-71
2022/07/27 00:29:34;;;;;;;6.70;2.57;;;20.00;93.70;;;;;;5003932;28;20041;-71
2022/07/27 00:32:00;;;;;;;5.27;2.80;;;20.00;93.20;;;;;;5004745;28;20022;-71
2022/07/27 00:34:26;;;;;;;3.23;2.53;;;20.00;93.60;;;;;;5004611;28;20018;-72
2022/07/27 00:36:51;;;;;;;3.17;2.40;;;19.90;93.50;;;;;;5004670;28;20101;-71
2022/07/27 00:39:18;;;;;;;5.33;3.00;;;19.90;93.80;;;;;;5004752;28;20037;-71
2022/07/27 00:41:44;;;;;;;6.70;2.72;;;19.90;94.40;;;;;;5003708;28;20014;-71
2022/07/27 00:44:11;;;;;;;4.13;2.35;;;19.90;94.20;;;;;;5004404;28;20349;-71
2022/07/27 00:46:37;;;;;;;4.07;2.40;;;19.90;94.20;;;;;;5003048;28;20034;-71
2022/07/27 00:49:03;;;;;;;3.80;2.73;;;19.90;94.50;;;;;;5004452;28;20372;-71
2022/07/27 00:51:29;;;;;;;2.80;2.42;;;19.80;94.50;;;;;;5003351;28;20480;-71
2022/07/27 00:53:54;;;;;;;3.53;2.97;;;19.80;94.90;;;;;;5003215;28;20060;-71
2022/07/27 00:56:21;;;;;;;3.03;2.73;;;19.80;94.90;;;;;;5003629;28;20029;-71
2022/07/27 00:58:49;;;;;;;5.47;3.15;;;19.80;95.70;;;;;;5003339;28;20069;-71
2022/07/27 01:01:16;;;;;;;7.90;3.08;;;19.80;95.60;;;;;;5003206;28;20041;-71
2022/07/27 01:03:41;;;;;;;5.35;3.03;;;19.80;95.70;;;;;;5004136;28;20022;-71
2022/07/27 01:06:07;;;;;;;3.83;2.50;;;19.80;95.30;;;;;;5004267;28;20329;-71
2022/07/27 01:08:33;;;;;;;4.53;2.50;;;19.80;95.60;;;;;;5003080;28;20065;-71
2022/07/27 01:10:59;;;;;;;3.92;2.78;;;19.80;95.10;;;;;;5002815;28;20026;-71
2022/07/27 01:13:25;;;;;;;3.53;2.90;;;19.70;95.60;;;;;;5002893;28;20038;-71
2022/07/27 01:15:52;;;;;;;5.40;2.53;;;19.70;96.30;;;;;;5004038;28;20066;-71
2022/07/27 01:18:36;;;;;;;8.48;3.20;;;19.70;96.90;;;;;;5004016;28;20033;-72
2022/07/27 01:21:03;;;;;;;6.03;2.80;;;19.70;96.20;;;;;;5002833;28;20022;-72
2022/07/27 01:23:32;;;;;;;5.10;2.90;;;19.70;96.00;;;;;;5002782;28;20033;-71
2022/07/27 01:25:59;;;;;;;3.60;2.92;;;19.70;96.40;;;;;;5002558;28;20066;-71
2022/07/27 01:28:25;;;;;;;8.35;3.22;;;19.60;97.10;;;;;;5002899;28;20061;-71
2022/07/27 01:30:52;;;;;;;5.40;3.30;;;19.60;97.00;;;;;;5001992;28;20041;-71
2022/07/27 01:33:24;;;;;;;4.75;3.20;;;19.60;97.70;;;;;;5002258;28;20105;-71
2022/07/27 01:35:51;;;;;;;4.47;3.17;;;19.60;98.70;;;;;;5003720;28;20265;-71
2022/07/27 01:38:17;;;;;;;5.28;3.42;;;19.60;99.50;;;;;;5003904;28;20045;-71
2022/07/27 01:40:43;;;;;;;4.60;3.17;;;19.60;99.90;;;;;;5003418;28;20014;-71
2022/07/27 01:43:08;;;;;;;4.07;3.10;;;19.60;99.90;;;;;;5003437;28;20030;-71
2022/07/27 01:45:34;;;;;;;6.43;3.50;;;19.50;99.90;;;;;;5003739;28;20391;-71
2022/07/27 01:48:00;;;;;;;4.53;3.50;;;19.60;99.90;;;;;;5003564;28;20077;-71
2022/07/27 01:50:27;;;;;;;7.93;3.73;;;19.50;99.90;;;;;;5003487;28;20360;-71
2022/07/27 01:52:52;;;;;;;4.95;3.30;;;19.50;99.90;;;;;;5001649;28;20367;-71
2022/07/27 01:55:18;;;;;;;8.00;4.37;;;19.50;99.90;;;;;;5002481;28;20030;-71
2022/07/27 01:57:44;;;;;;;4.93;3.90;;;19.40;99.90;;;;;;5003392;28;20034;-71
2022/07/27 02:00:10;;;;;;;3.53;3.23;;;19.40;99.90;;;;;;5003336;28;20026;-71
2022/07/27 02:02:36;;;;;;;6.50;3.63;;;19.30;99.90;;;;;;4984980;28;20019;-71
2022/07/27 02:05:03;;;;;;;4.30;3.27;;;19.30;99.90;;;;;;5003154;28;20041;-71
2022/07/27 02:07:29;;;;;;;5.72;3.70;;;19.20;99.90;;;;;;4985217;28;20038;-71
2022/07/27 02:09:54;;;;;;;5.90;3.77;;;19.20;99.90;;;;;;5003314;28;20325;-71
2022/07/27 02:12:35;;;;;;;5.53;3.03;;;19.20;99.90;;;;;;5003164;28;20037;-71
2022/07/27 02:15:07;;;;;;;5.75;3.80;;;19.20;99.90;;;;;;5002828;28;20030;-72
2022/07/27 02:17:32;;;;;;;6.10;3.58;;;19.20;99.90;;;;;;5000989;28;20018;-71
2022/07/27 02:19:58;;;;;;;5.50;3.70;;;19.20;99.90;;;;;;5002039;28;20348;-71
2022/07/27 02:22:24;;;;;;;4.77;3.63;;;19.20;99.90;;;;;;5002788;28;20053;-71
2022/07/27 02:24:50;;;;;;;5.50;3.50;;;19.20;99.90;;;;;;5002834;28;20041;-72
2022/07/27 02:27:15;;;;;;;4.73;3.63;;;19.20;99.90;;;;;;5003066;28;20022;-72
2022/07/27 02:29:41;;;;;;;5.17;3.37;;;19.10;99.90;;;;;;5002910;28;20030;-72
2022/07/27 02:32:07;;;;;;;5.23;3.47;;;19.10;99.90;;;;;;5002375;28;20029;-71
2022/07/27 02:34:32;;;;;;;4.50;3.77;;;19.00;99.90;;;;;;5002625;28;20026;-71
2022/07/27 02:36:58;;;;;;;6.70;4.20;;;19.00;99.90;;;;;;5002537;28;20037;-71
2022/07/27 02:39:24;;;;;;;5.57;4.07;;;18.90;99.90;;;;;;5002854;28;20030;-71
2022/07/27 02:41:50;;;;;;;6.53;3.90;;;18.80;99.90;;;;;;5002718;28;20023;-71
2022/07/27 02:44:17;;;;;;;5.23;4.00;;;18.80;99.90;;;;;;5002127;28;20033;-71
2022/07/27 02:46:43;;;;;;;5.90;4.00;;;18.70;99.90;;;;;;5000162;28;20018;-71
2022/07/27 02:49:09;;;;;;;5.63;4.37;;;18.70;99.90;;;;;;5001460;28;20147;-71
2022/07/27 02:51:35;;;;;;;8.40;3.97;;;18.60;99.90;;;;;;5001270;28;20089;-71
2022/07/27 02:54:02;;;;;;;5.47;3.92;;;18.50;99.90;;;;;;5002137;28;20097;-71
2022/07/27 02:56:28;;;;;;;5.47;3.47;;;18.40;99.90;;;;;;4998684;28;20023;-71
2022/07/27 02:58:54;;;;;;;4.10;3.70;;;18.40;99.90;;;;;;5002313;28;20026;-71
2022/07/27 03:01:21;;;;;;;5.20;3.90;;;18.30;99.90;;;;;;5001507;28;20282;-71
2022/07/27 03:03:47;;;;;;;5.85;4.65;;;18.30;99.90;;;;;;5001173;28;20085;-71
2022/07/27 03:06:12;;;;;;;5.27;4.27;;;18.30;99.90;;;;;;5002528;28;20292;-71
2022/07/27 03:08:38;;;;;;;5.67;4.17;;;18.40;99.90;;;;;;5001693;28;20033;-71
2022/07/27 03:11:04;;;;;;;5.07;4.10;;;18.40;99.90;;;;;;5002394;28;20034;-71
2022/07/27 03:13:30;;;;;;;7.67;4.50;;;18.40;99.90;;;;;;5000841;28;20175;-71
2022/07/27 03:15:56;;;;;;;8.30;4.30;;;18.40;99.90;;;;;;5001238;28;20030;-71
2022/07/27 03:18:22;;;;;;;11.07;4.70;;;18.40;99.90;;;;;;5001245;28;20022;-71
2022/07/27 03:20:47;;;;;;;5.40;3.90;;;18.50;99.90;;;;;;5002113;28;20018;-71
2022/07/27 03:23:13;;;;;;;5.87;4.40;;;18.50;99.90;;;;;;5000661;28;20117;-71
2022/07/27 03:25:39;;;;;;;5.53;4.23;;;18.50;99.90;;;;;;5001198;28;20077;-71
2022/07/27 03:28:04;;;;;;;8.43;5.00;;;18.50;99.90;;;;;;5002214;28;20037;-71
2022/07/27 03:30:31;;;;;;;4.57;4.00;;;18.60;99.90;;;;;;5002223;28;20030;-71
2022/07/27 03:32:57;;;;;;;;;;;18.60;99.90;;;;;;5001217;28;20058;-71
2022/07/27 03:35:23;;;;;;;7.65;4.43;;;18.60;99.90;;;;;;5002143;28;19909;-70
2022/07/27 03:37:48;;;;;;;4.97;4.40;;;18.60;99.90;;;;;;5000734;28;20033;-70
2022/07/27 03:40:14;;;;;;;4.90;3.93;;;18.50;99.90;;;;;;5002074;28;20355;-71
2022/07/27 03:42:40;;;;;;;6.53;4.43;;;18.50;99.90;;;;;;5001737;28;20026;-71
2022/07/27 03:45:07;;;;;;;5.80;4.10;;;18.40;99.90;;;;;;5001766;28;20018;-71
2022/07/27 03:47:33;;;;;;;7.70;4.50;;;18.40;99.90;;;;;;5001254;28;20105;-71
2022/07/27 03:49:59;;;;;;;5.53;4.43;;;18.40;99.90;;;;;;5000973;28;20018;-71
2022/07/27 03:52:24;;;;;;;8.47;4.30;;;18.50;99.90;;;;;;5001779;28;20285;-71
2022/07/27 03:54:50;;;;;;;6.37;4.63;;;18.50;99.90;;;;;;5002726;28;20317;-71
2022/07/27 03:57:16;;;;;;;4.90;4.03;;;18.50;99.90;;;;;;5005625;28;20333;-71
2022/07/27 03:59:42;;;;;;;6.17;3.63;;;18.50;99.90;;;;;;5005623;28;20284;-71
2022/07/27 04:02:07;;;;;;;5.50;4.13;;;18.50;99.90;;;;;;5005508;28;20343;-71
2022/07/27 04:04:33;;;;;;;7.50;4.07;;;18.50;99.90;;;;;;5004181;28;20022;-71
2022/07/27 04:06:59;;;;;;;6.60;4.10;;;18.40;99.90;;;;;;5005435;28;20038;-70
2022/07/27 04:09:25;;;;;;;5.30;4.27;;;18.40;99.90;;;;;;5005133;28;20375;-70
2022/07/27 04:11:50;;;;;;;6.13;4.60;;;18.40;99.90;;;;;;5004469;28;20337;-70
2022/07/27 04:14:16;;;;;;;8.00;4.53;;;18.40;99.90;;;;;;5005180;28;20053;-70
2022/07/27 04:16:42;;;;;;;5.30;3.83;;;18.40;99.90;;;;;;5005238;28;20029;-71
2022/07/27 04:19:08;;;;;;;6.90;4.03;;;18.40;99.90;;;;;;5000034;28;20077;-71
2022/07/27 04:21:34;;;;;;;7.07;4.63;;;18.40;99.90;;;;;;5000471;28;20595;-71
2022/07/27 04:24:03;;;;;;;5.47;4.32;;;18.40;99.90;;;;;;5004718;28;20101;-72
2022/07/27 04:26:29;;;;;;;7.13;4.55;;;18.50;99.90;;;;;;4997648;28;20073;-71
2022/07/27 04:28:55;;;;;;;6.87;4.90;;;18.50;99.90;;;;;;5003268;28;20026;-71
2022/07/27 04:31:21;;;;;;;6.07;4.70;;;18.50;99.90;;;;;;5004728;28;20251;-71
2022/07/27 04:33:47;;;;;;;8.65;4.50;;;18.60;99.90;;;;;;5003195;28;20033;-71
2022/07/27 04:36:13;;;;;;;6.33;4.33;;;18.60;99.90;;;;;;5004753;28;20073;-71
2022/07/27 04:38:39;;;;;;;7.13;4.73;;;18.70;99.90;;;;;;5004645;28;20026;-71
2022/07/27 04:41:05;;;;;;;6.10;4.30;;;18.70;99.90;;;;;;5004492;28;20517;-72
2022/07/27 04:43:31;;;;;;;7.20;4.32;;;18.70;99.90;;;;;;5003067;28;20026;-71
2022/07/27 04:45:56;;;;;;;8.80;4.83;;;18.80;99.90;;;;;;5004232;28;20026;-71
2022/07/27 04:48:22;;;;;;;6.60;4.67;;;18.80;99.90;;;;;;5004070;28;20349;-71
2022/07/27 04:50:48;;;;;;;5.30;4.40;;;18.80;99.90;;;;;;5001889;28;20037;-71
2022/07/27 04:53:14;;;;;;;5.60;4.43;;;18.70;99.90;;;;;;5003819;28;20050;-71
2022/07/27 04:55:44;;;;;;;5.90;5.27;;;18.70;99.90;;;;;;5002998;28;20044;-71
2022/07/27 04:58:10;;;;;;;7.13;4.07;;;18.80;99.90;;;;;;5001961;28;20229;-71
2022/07/27 05:00:36;;;;;;;9.55;4.90;;;18.80;99.90;;;;;;5003182;28;20056;-69
2022/07/27 05:03:03;;;;;;;6.95;4.30;;;18.80;99.90;;;;;;5003760;28;20034;-70
2022/07/27 05:05:28;;;;;;;5.53;4.90;;;18.80;99.90;;;;;;5003564;28;20229;-70
2022/07/27 05:07:54;;;;;;;6.90;5.10;;;18.80;99.90;;;;;;4996813;28;20031;-68
2022/07/27 05:10:20;;;;;;;7.57;4.67;;;18.70;99.90;;;;;;4989969;28;20090;-70
2022/07/27 05:12:47;;;;;;;5.80;4.00;;;18.70;99.90;;;;;;5000226;28;20158;-70
2022/07/27 05:15:12;;;;;;;8.85;4.43;;;18.70;99.90;;;;;;4996995;28;20023;-69
2022/07/27 05:17:38;;;;;;;5.23;3.63;;;18.60;99.90;;;;;;5003738;28;20053;-70
2022/07/27 05:20:05;;;;;;;4.45;4.05;;;18.70;99.90;;;;;;5003601;28;20253;-69
2022/07/27 05:22:30;;;;;;;5.28;3.65;;;18.70;99.90;;;;;;5003630;28;20324;-70
2022/07/27 05:24:56;;;;;;;6.50;4.00;;;18.80;99.90;;;;;;5003869;28;20026;-69
2022/07/27 05:27:22;;;;;;;11.30;4.10;;;18.90;99.90;;;;;;5003707;28;20026;-69
2022/07/27 05:29:48;;;;;;;6.83;4.07;;;18.90;99.90;;;;;;5003728;28;20344;-69
2022/07/27 05:32:14;;;;;;;6.20;3.95;;;19.00;99.90;;;;;;5002433;28;20030;-69
2022/07/27 05:34:40;;;;;;;6.60;4.57;;;19.10;99.90;;;;;;5003303;28;20125;-69
2022/07/27 05:37:07;;;;;;;8.32;4.60;;;19.10;99.90;;;;;;5003465;28;20026;-69
2022/07/27 05:39:32;;;;;;;5.30;4.15;;;19.20;99.90;;;;;;5003590;28;20140;-70
2022/07/27 05:41:58;;;;;;;7.10;4.20;;;19.30;99.90;;;;;;5003236;28;20551;-69
2022/07/27 05:44:24;;;;;;;6.73;3.77;;;19.40;99.90;;;;;;5003287;28;20225;-69
2022/07/27 05:46:50;;;;;;;4.33;3.80;;;19.40;99.90;;;;;;5003436;28;20030;-68
2022/07/27 05:49:16;;;;;;;6.43;3.57;;;19.50;99.90;;;;;;5003568;28;20046;-69
2022/07/27 05:51:42;;;;;;;5.30;3.57;;;19.60;99.90;;;;;;5002962;28;20033;-69
2022/07/27 05:54:08;;;;;;;6.10;3.40;;;19.70;99.90;;;;;;5002816;28;20026;-69
2022/07/27 05:56:34;;;;;;;4.90;3.60;;;19.80;99.90;;;;;;5002406;28;20379;-70
2022/07/27 05:59:00;;;;;;;7.45;3.28;;;19.90;99.90;;;;;;5003150;28;20273;-69
2022/07/27 06:01:26;;;;;;;7.78;4.28;;;19.90;99.90;;;;;;5001982;28;20033;-69
2022/07/27 06:03:52;;;;;;;6.35;3.63;;;20.00;99.90;;;;;;5002757;28;20277;-69
2022/07/27 06:09:09;;;;;;;2.83;2.60;;;20.10;99.90;;;;;;4994052;28;20038;-69
2022/07/27 06:11:35;;;;;;;6.43;3.07;;;20.10;99.90;;;;;;5002813;28;20063;-70
2022/07/27 06:14:01;;;;;;;5.65;3.00;;;20.20;99.90;;;;;;5002917;28;20030;-69
2022/07/27 06:16:27;;;;;;;4.17;3.20;;;20.20;99.90;;;;;;5002887;28;20030;-69
2022/07/27 06:18:53;;;;;;;6.10;2.90;;;20.30;99.90;;;;;;5002394;28;20018;-69
2022/07/27 06:21:18;;;;;;;3.60;2.83;;;20.40;99.90;;;;;;5002885;28;20014;-70
2022/07/27 06:23:47;;;;;;;4.23;2.87;;;20.40;99.90;;;;;;5002603;28;20329;-69
2022/07/27 06:26:12;;;;;;;3.28;2.80;;;20.40;99.90;;;;;;5002525;28;20321;-69
2022/07/27 06:28:38;;;;;;;4.50;2.70;;;20.50;99.90;;;;;;5002741;28;20033;-70
2022/07/27 06:31:04;;;;;;;4.97;3.20;;;20.50;99.90;;;;;;5002604;28;20097;-69
2022/07/27 06:33:30;;;;;;;4.10;3.40;;;20.50;99.90;;;;;;5002371;28;20038;-69
2022/07/27 06:35:57;;;;;;;4.47;2.67;;;20.60;99.90;;;;;;5002628;28;20325;-69
2022/07/27 06:38:23;;;;;;;;;;;20.60;99.90;;;;;;5001885;28;20018;-73
2022/07/27 06:40:51;;;;;;;5.50;3.35;;;20.70;99.90;;;;;;4999666;28;19914;-72
2022/07/27 06:43:25;;;;;;;11.13;3.40;;;20.70;99.90;;;;;;4994092;28;20119;-73
2022/07/27 06:45:53;;;;;;;5.22;3.40;;;20.70;99.90;;;;;;4982889;28;20325;-72
2022/07/27 06:48:20;;;;;;;4.28;2.95;;;20.70;99.90;;;;;;4982752;28;20023;-72
2022/07/27 06:50:46;;;;;;;4.88;2.90;;;20.70;99.90;;;;;;4982595;28;20023;-72
2022/07/27 06:53:12;;;;;;;6.80;3.00;;;20.80;99.90;;;;;;4981190;28;20037;-72
2022/07/27 06:55:38;;;;;;;3.63;3.33;;;20.70;99.90;;;;;;4981399;28;20070;-71
2022/07/27 06:58:04;;;;;;;5.77;3.60;;;20.80;99.90;;;;;;4999718;28;20269;-70
2022/07/27 07:00:30;;;;;;;6.47;3.67;;;20.80;99.90;;;;;;5001928;28;20278;-70
2022/07/27 07:03:03;;;;;;;3.80;3.50;;;20.80;99.90;;;;;;5001855;28;20026;-73
2022/07/27 07:05:30;;;;;;;5.57;3.45;;;20.80;99.90;;;;;;5001015;28;20081;-72
2022/07/27 07:07:56;;;;;;;4.00;3.60;;;20.90;99.90;;;;;;5001878;28;20038;-72
2022/07/27 07:10:22;;;;;;;5.35;4.03;;;20.80;99.90;;;;;;5000901;28;20038;-72
2022/07/27 07:12:48;;;;;;;4.00;3.60;;;20.80;99.90;;;;;;4999795;28;20030;-72
2022/07/27 07:15:15;;;;;;;5.73;3.70;;;20.80;99.90;;;;;;5000201;28;20044;-72
2022/07/27 07:17:41;;;;;;;4.32;3.42;;;20.80;99.90;;;;;;4984885;28;20225;-72
2022/07/27 07:20:08;;;;;;;6.30;3.30;;;20.70;99.90;;;;;;5001966;28;20030;-70
2022/07/27 07:22:34;;;;;;;5.60;3.40;;;20.90;99.90;;;;;;5001763;28;20026;-69
2022/07/27 07:25:00;;;;;;;4.57;3.67;;;21.00;99.90;;;;;;5001806;28;20093;-73
2022/07/27 07:27:26;;;;;;;5.05;3.28;;;21.00;99.90;;;;;;5000609;28;20233;-70
2022/07/27 07:29:52;;;;;;;5.28;4.13;;;21.10;99.90;;;;;;5002115;28;20050;-73
2022/07/27 07:32:23;;;;;;;6.05;3.92;;;21.30;99.90;;;;;;5005609;28;20026;-73
2022/07/27 07:34:49;;;;;;;5.15;4.30;;;21.30;99.90;;;;;;5005467;28;20038;-67
2022/07/27 07:37:16;;;;;;;6.03;4.13;;;21.50;99.90;;;;;;5005323;28;20360;-72
2022/07/27 07:39:41;;;;;;;;;;;21.50;99.90;;;;;;5005053;28;20026;-74
2022/07/27 07:42:07;;;;;;;5.10;3.60;;;21.50;99.90;;;;;;5004225;28;20201;-71
2022/07/27 07:44:33;;;;;;;4.80;3.80;;;21.60;99.90;;;;;;5005391;28;20221;-69
2022/07/27 07:46:59;;;;;;;4.03;3.63;;;21.60;99.90;;;;;;5005428;28;20034;-73
2022/07/27 07:49:25;;;;;;;5.00;3.47;;;21.70;99.90;;;;;;5005753;28;20033;-69
2022/07/27 07:51:51;;;;;;;4.60;3.38;;;21.70;99.90;;;;;;5004368;28;20026;-72
2022/07/27 07:54:17;;;;;;;3.57;3.27;;;21.70;99.90;;;;;;5005274;28;20062;-73
2022/07/27 07:56:42;;;;;;;3.38;3.03;;;21.80;99.90;;;;;;5003839;28;20072;-72
2022/07/27 07:59:08;;;;;;;4.83;3.50;;;21.80;99.90;;;;;;5003575;28;20029;-73
2022/07/27 08:01:34;;;;;;;4.40;3.00;;;21.80;99.90;;;;;;5004651;28;20026;-72
2022/07/27 08:03:59;;;;;;;4.20;3.43;;;21.80;99.90;;;;;;5005068;28;20231;-74
2022/07/27 08:06:25;;;;;;;6.27;3.30;;;21.80;99.90;;;;;;5006044;28;20026;-75
2022/07/27 08:08:51;;;;;;;3.53;2.80;;;21.80;99.90;;;;;;5005559;28;20026;-71
2022/07/27 08:11:17;;;;;;;3.85;3.30;;;21.80;99.90;;;;;;5003379;28;20036;-70
2022/07/27 08:13:43;;;;;;;3.93;2.77;;;21.80;99.90;;;;;;5003927;28;20026;-71
2022/07/27 08:16:08;;;;;;;4.17;2.70;;;21.90;98.90;;;;;;5005191;28;20026;-72
2022/07/27 08:18:34;;;;;;;3.17;2.87;;;21.90;96.60;;;;;;5005228;28;20133;-71
2022/07/27 08:21:00;;;;;;;3.97;2.73;;;22.00;98.00;;;;;;5005124;28;20356;-71
2022/07/27 08:23:25;;;;;;;5.10;2.90;;;22.10;95.00;;;;;;5004466;28;20026;-71
2022/07/27 08:25:52;;;;;;;6.03;2.27;;;22.20;94.40;;;;;;5005060;28;20392;-71
2022/07/27 08:28:18;;;;;;;3.30;3.00;;;22.30;94.50;;;;;;5003690;28;20133;-71
2022/07/27 08:30:44;;;;;;;3.23;2.63;;;22.40;94.70;;;;;;5005022;28;20345;-73
2022/07/27 08:33:10;;;;;;;3.28;2.58;;;22.50;99.80;;;;;;5004495;28;20030;-69
2022/07/27 08:35:35;;;;;;;5.38;2.53;;;22.60;98.50;;;;;;5004310;28;20333;-69
2022/07/27 08:38:04;;;;;;;3.87;3.07;;;22.60;99.40;;;;;;5004637;28;20146;-69
2022/07/27 08:40:30;;;;;;;7.15;3.15;;;22.60;97.90;;;;;;5004237;28;20022;-69
2022/07/27 08:42:55;;;;;;;4.07;2.50;;;22.60;99.00;;;;;;5001059;28;20022;-69
2022/07/27 08:45:23;;;;;;;5.27;2.80;;;22.60;99.90;;;;;;4987339;28;20233;-69
2022/07/27 08:47:48;;;;;;;5.60;3.00;;;22.60;99.00;;;;;;5004301;28;20026;-69
2022/07/27 08:50:22;;;;;;;2.97;2.27;;;22.70;98.40;;;;;;5004474;28;20356;-68
2022/07/27 08:53:09;;;;;;;3.28;2.45;;;22.70;98.50;;;;;;5004170;28;20049;-69
2022/07/27 08:55:37;;;;;;;5.53;2.63;;;22.70;95.60;;;;;;5004389;28;20081;-69
2022/07/27 08:58:03;;;;;;;6.65;2.95;;;22.70;96.50;;;;;;4986225;28;20037;-69
2022/07/27 09:00:30;;;;;;;3.00;2.72;;;22.80;94.90;;;;;;5003979;28;20034;-69
2022/07/27 09:02:56;;;;;;;8.30;2.83;;;22.90;96.40;;;;;;5003883;28;20030;-69
2022/07/27 09:05:22;;;;;;;5.47;3.28;;;22.90;98.10;;;;;;5003089;28;20026;-69
2022/07/27 09:07:47;;;;;;;3.65;2.70;;;22.90;98.70;;;;;;5004155;28;20096;-69
2022/07/27 09:10:33;;;;;;;2.50;2.30;;;22.90;98.20;;;;;;5003115;28;20026;-69
2022/07/27 09:12:59;;;;;;;4.25;2.50;;;22.90;98.20;;;;;;5001078;28;20252;-69
2022/07/27 09:15:25;;;;;;;3.05;2.75;;;22.90;96.20;;;;;;5002880;28;20030;-68
2022/07/27 09:17:51;;;;;;;4.78;2.90;;;23.00;96.70;;;;;;5002997;28;20126;-67
2022/07/27 09:20:18;;;;;;;4.95;3.10;;;23.00;95.00;;;;;;4986497;28;20093;-67
2022/07/27 09:22:49;;;;;;;3.20;2.50;;;23.10;95.90;;;;;;5003582;28;20037;-68
2022/07/27 09:25:37;;;;;;;4.35;2.63;;;23.20;96.90;;;;;;5003611;28;20034;-68
2022/07/27 09:28:03;;;;;;;3.10;2.63;;;23.30;97.20;;;;;;5003830;28;20380;-69
2022/07/27 09:30:29;;;;;;;3.53;2.72;;;23.40;97.50;;;;;;5002644;28;20045;-69
2022/07/27 09:33:03;;;;;;;3.10;2.80;;;23.40;98.50;;;;;;5003142;28;20049;-69
2022/07/27 09:35:33;;;;;;;5.78;2.67;;;23.50;96.10;;;;;;5002437;28;20289;-68
2022/07/27 09:38:23;;;;;;;3.90;3.08;;;23.50;94.00;;;;;;5002280;28;20018;-68
2022/07/27 09:41:03;;;;;;;6.22;2.50;;;23.50;95.50;;;;;;5003376;28;20198;-68
2022/07/27 09:43:29;;;;;;;6.13;2.40;;;23.50;93.50;;;;;;5001270;28;20300;-68
2022/07/27 09:45:55;;;;;;;2.40;2.20;;;23.50;92.00;;;;;;4985877;28;20102;-68
2022/07/27 09:48:22;;;;;;;4.32;2.33;;;23.50;92.00;;;;;;5002958;28;20034;-68
2022/07/27 09:50:57;;;;;;;3.42;2.20;;;23.40;90.90;;;;;;5003335;28;20221;-68
2022/07/27 09:53:26;;;;;;;3.40;2.35;;;23.50;92.40;;;;;;5002014;28;20081;-70
2022/07/27 09:56:12;;;;;;;3.30;2.25;;;23.50;93.10;;;;;;5002136;28;20033;-70
2022/07/27 09:58:57;;;;;;;5.65;2.67;;;23.60;93.80;;;;;;5026118;23;20041;-71
2022/07/27 10:01:26;;;;;;;8.23;2.97;;;23.70;93.20;;;;;;5031932;28;20030;-70
2022/07/27 10:03:57;;;;;;;3.40;2.90;;;23.70;90.50;;;;;;5042477;28;20212;-70
2022/07/27 10:06:23;;;;;;;5.00;2.85;;;23.60;87.60;;;;;;5041876;28;20048;-71
2022/07/27 10:08:51;;;;;;;4.28;2.60;;;23.70;90.10;;;;;;5033304;28;20093;-71
2022/07/27 10:11:18;;;;;;;5.35;3.25;;;23.70;91.20;;;;;;5002724;28;20185;-71
2022/07/27 10:13:44;;;;;;;3.22;2.58;;;23.80;90.70;;;;;;5002598;28;20034;-71
2022/07/27 10:16:16;;;;;;;3.25;2.85;;;23.80;90.80;;;;;;5003330;28;20261;-71
2022/07/27 10:19:13;;;;;;;4.22;2.85;;;23.90;91.30;;;;;;5003308;28;20026;-71
2022/07/27 10:21:44;;;;;;;3.88;2.65;;;24.10;90.80;;;;;;4984021;28;20018;-70
2022/07/27 10:24:24;;;;;;;7.63;2.75;;;24.30;90.40;;;;;;4983908;28;20023;-71
2022/07/27 10:26:50;;;;;;;5.22;2.75;;;24.50;89.20;;;;;;4984109;28;20118;-70
2022/07/27 10:29:17;;;;;;;5.10;2.55;;;24.60;86.70;;;;;;4982860;28;20049;-71
2022/07/27 10:31:52;;;;;;;2.95;2.45;;;24.70;82.20;;;;;;4983737;28;20352;-71
2022/07/27 10:34:39;;;;;;;2.90;2.60;;;24.60;81.20;;;;;;4983563;28;20050;-71
2022/07/27 10:37:16;;;;;;;4.70;3.20;;;24.70;84.40;;;;;;4983715;28;20033;-71
2022/07/27 10:39:49;;;;;;;;;;;24.70;84.80;;;;;;4983171;28;20368;-71
2022/07/27 10:42:26;;;;;;;6.32;2.35;;;24.80;83.80;;;;;;4983731;28;19912;-71
2022/07/27 10:45:08;;;;;;;4.32;2.47;;;24.90;79.80;;;;;;4982404;28;20026;-71
2022/07/27 10:47:43;;;;;;;4.40;2.70;;;25.00;80.30;;;;;;4982869;28;20313;-80
2022/07/27 10:50:18;;;;;;;3.45;2.53;;;25.10;82.20;;;;;;4997173;28;20086;-81
2022/07/27 10:52:51;;;;;;;3.70;2.35;;;25.10;82.30;;;;;;5006733;28;20336;-81
2022/07/27 10:55:29;;;;;;;2.78;2.33;;;25.20;79.80;;;;;;5025607;28;20041;-81
2022/07/27 10:58:15;;;;;;;3.95;2.45;;;25.20;81.40;;;;;;5026403;28;20044;-81
2022/07/27 11:00:50;;;;;;;3.03;2.50;;;25.30;81.90;;;;;;5027300;28;20025;-81
2022/07/27 11:03:22;;;;;;;2.50;2.20;;;25.30;79.30;;;;;;5027008;28;20084;-81
2022/07/27 11:05:58;;;;;;;4.45;2.83;;;25.40;79.00;;;;;;4997343;28;20317;-81
2022/07/27 11:08:35;;;;;;;6.43;2.60;;;25.20;76.20;;;;;;5012824;28;20173;-81
2022/07/27 11:11:01;;;;;;;3.53;2.30;;;25.30;76.50;;;;;;5013892;28;20064;-81
2022/07/27 11:13:27;;;;;;;2.70;2.40;;;25.30;74.60;;;;;;5013186;28;20030;-81
2022/07/27 11:16:05;;;;;;;6.25;2.85;;;25.40;77.40;;;;;;4996761;28;20332;-81
2022/07/27 11:18:38;;;;;;;5.50;2.60;;;25.50;77.60;;;;;;4998518;28;20022;-81
2022/07/27 11:21:18;;;;;;;6.28;2.67;;;25.60;78.40;;;;;;4990683;28;20022;-81
2022/07/27 11:23:45;;;;;;;5.97;2.53;;;25.70;73.70;;;;;;5003101;28;20019;-80
2022/07/27 11:26:11;;;;;;;4.53;2.45;;;25.70;72.90;;;;;;4990596;28;20333;-80
2022/07/27 11:28:37;;;;;;;4.00;2.50;;;25.80;69.60;;;;;;4989985;28;20038;-78
2022/07/27 11:31:04;;;;;;;3.33;2.33;;;25.80;71.80;;;;;;4989799;28;20329;-79
2022/07/27 11:33:30;;;;;;;2.80;2.40;;;25.70;70.00;;;;;;4988884;28;20018;-79
2022/07/27 11:36:01;;;;;;;2.45;1.92;;;25.80;72.50;;;;;;4989210;28;20053;-82
2022/07/27 11:38:27;;;;;;;2.60;2.35;;;25.80;72.90;;;;;;4989923;28;20055;-82
2022/07/27 11:40:53;;;;;;;4.60;2.65;;;25.80;71.50;;;;;;4988598;28;20240;-80
2022/07/27 11:43:39;;;;;;;9.05;3.05;;;25.70;71.40;;;;;;4972853;28;20029;-78
2022/07/27 11:46:16;;;;;;;4.43;2.38;;;25.70;74.00;;;;;;4999504;28;20236;-79
2022/07/27 11:48:51;;;;;;;3.70;2.33;;;25.50;70.40;;;;;;5007928;28;20101;-79
2022/07/27 11:51:17;;;;;;;3.40;2.53;;;25.40;71.80;;;;;;5008582;28;20090;-79
2022/07/27 11:53:43;;;;;;;3.15;2.53;;;25.50;73.70;;;;;;5010887;28;20349;-79
2022/07/27 11:56:09;;;;;;;4.55;2.55;;;25.50;74.80;;;;;;5009481;28;20030;-79
2022/07/27 11:59:06;;;;;;;5.13;2.78;;;25.50;74.20;;;;;;4992699;28;20030;-79
2022/07/27 12:01:36;;;;;;;2.83;2.15;;;25.60;75.70;;;;;;4994036;28;20033;-78
2022/07/27 12:04:11;;;;;;;3.95;2.90;;;25.70;76.10;;;;;;5010645;28;20086;-79
2022/07/27 12:06:41;;;;;;;5.68;2.92;;;25.70;71.30;;;;;;5011016;28;20069;-79
2022/07/27 12:09:11;;;;;;;3.50;2.38;;;25.50;69.00;;;;;;5010450;28;20064;-79
2022/07/27 12:11:56;;;;;;;4.25;2.40;;;25.50;72.90;;;;;;5009438;28;20029;-79
2022/07/27 12:14:53;;;;;;;6.38;3.05;;;25.50;72.10;;;;;;5009459;28;20018;-79
2022/07/27 12:17:25;;;;;;;6.75;2.50;;;25.50;73.10;;;;;;5010722;28;20030;-79
2022/07/27 12:20:02;;;;;;;6.55;2.20;;;25.60;73.70;;;;;;4994937;28;20049;-79
2022/07/27 12:22:50;;;;;;;2.38;2.13;;;25.90;74.30;;;;;;5009897;28;20254;-79
2022/07/27 12:25:16;;;;;;;;;;;26.20;68.00;;;;;;5010901;28;20093;-79
2022/07/27 12:28:12;;;;;;;2.75;2.20;;;26.30;67.90;;;;;;5011232;28;19944;-79
2022/07/27 12:30:50;;;;;;;2.70;2.08;;;26.40;68.40;;;;;;5003945;28;20214;-79
2022/07/27 12:33:35;;;;;;;3.92;2.10;;;26.40;66.60;;;;;;5010206;28;20019;-78
2022/07/27 12:36:03;;;;;;;2.95;2.28;;;26.70;65.10;;;;;;5010514;28;20030;-79
2022/07/27 12:38:47;;;;;;;3.42;2.40;;;26.80;64.90;;;;;;4991570;28;20049;-79
2022/07/27 12:41:34;;;;;;;3.65;2.55;;;27.20;67.60;;;;;;5008477;28;20018;-78
2022/07/27 12:44:05;;;;;;;7.03;2.60;;;27.70;67.40;;;;;;4995998;28;20078;-79
2022/07/27 12:46:31;;;;;;;3.38;2.30;;;28.10;64.90;;;;;;5010217;28;20329;-79
2022/07/27 12:48:56;;;;;;;2.13;1.90;;;28.50;63.90;;;;;;5009676;28;20050;-79
2022/07/27 12:51:22;;;;;;;5.03;2.33;;;28.50;59.90;;;;;;5007016;28;20359;-80
2022/07/27 12:53:48;;;;;;;5.93;2.45;;;28.50;61.50;;;;;;4992405;28;20026;-80
2022/07/27 12:56:14;;;;;;;3.10;1.92;;;28.40;61.00;;;;;;5009374;28;20061;-80